Terminal Aerodrome Forecast
Issued by NWS

Home | Current Version | Previous Version | Text Only | Print | Product List | Glossary On
Versions: 1 2 3 4 5 6 7 8 9 10 11 12 13 14 15 16 17
716
FTUS43 KOAX 271120
TAFCDR
TAF
KCDR 271120Z 2712/2812 20005KT P6SM SKC
      TEMPO 2712/2714 3SM BR SCT015
     FM271500 25006KT P6SM SCT100
     FM271900 18010G20KT P6SM SCT100
     FM280200 18010KT P6SM SKC=

USA.gov is the U.S. government's official web portal to all federal, state and local government web resources and services.